createdAt,value
2019-01-13T00:01:57.341Z,82.93
2019-01-13T00:04:29.187Z,82.95
2019-01-13T00:06:59.974Z,82.78
2019-01-13T00:09:30.964Z,82.73
2019-01-13T00:12:01.746Z,82.90
2019-01-13T00:14:32.428Z,82.79
2019-01-13T00:17:03.378Z,82.65
2019-01-13T00:19:34.466Z,82.60
2019-01-13T00:22:07.178Z,82.52
2019-01-13T00:24:38.106Z,82.57
2019-01-13T00:27:08.979Z,82.85
2019-01-13T00:29:39.955Z,82.90
2019-01-13T00:32:10.663Z,83.07
2019-01-13T00:34:41.451Z,82.75
2019-01-13T00:37:12.466Z,82.77
2019-01-13T00:39:43.267Z,82.75
2019-01-13T00:42:14.035Z,82.71
2019-01-13T00:44:44.786Z,83.00
2019-01-13T00:47:15.741Z,82.96
2019-01-13T00:49:46.662Z,82.93
2019-01-13T00:52:17.476Z,82.99
2019-01-13T00:54:48.261Z,83.01
2019-01-13T00:57:19.046Z,83.07
2019-01-13T00:59:49.829Z,82.93
2019-01-13T01:02:20.688Z,83.17
2019-01-13T01:04:51.475Z,83.20
2019-01-13T01:07:23.377Z,83.21
2019-01-13T01:09:54.364Z,83.24
2019-01-13T01:12:25.194Z,83.32
2019-01-13T01:14:56.345Z,83.47
2019-01-13T01:17:27.134Z,83.75
2019-01-13T01:19:58.409Z,83.69
2019-01-13T01:22:29.118Z,83.57
2019-01-13T01:24:59.947Z,83.92
2019-01-13T01:27:30.831Z,83.97
2019-01-13T01:30:01.822Z,84.14
2019-01-13T01:32:33.726Z,84.49
2019-01-13T01:35:05.047Z,84.54
2019-01-13T01:37:35.782Z,84.47
2019-01-13T01:40:09.120Z,84.71
2019-01-13T01:42:39.906Z,84.79
2019-01-13T01:45:12.533Z,84.68
2019-01-13T01:47:43.316Z,84.78
2019-01-13T01:50:14.585Z,84.63
2019-01-13T01:52:45.299Z,84.77
2019-01-13T01:55:18.383Z,84.68
2019-01-13T01:57:49.525Z,84.45
2019-01-13T02:00:24.810Z,84.47
2019-01-13T02:02:55.706Z,84.58
2019-01-13T02:05:26.576Z,84.57
2019-01-13T02:07:57.284Z,84.51
2019-01-13T02:10:28.077Z,84.41
2019-01-13T02:12:58.940Z,84.36
2019-01-13T02:15:29.965Z,84.48
2019-01-13T02:18:00.882Z,84.65
2019-01-13T02:20:32.001Z,84.54
2019-01-13T02:23:02.810Z,84.56
2019-01-13T02:25:33.829Z,84.60
2019-01-13T02:28:04.838Z,84.73
2019-01-13T02:30:35.753Z,84.80
2019-01-13T02:33:06.635Z,84.54
2019-01-13T02:35:37.593Z,84.42
2019-01-13T02:38:08.480Z,84.62
2019-01-13T02:40:39.253Z,84.71
2019-01-13T02:43:09.949Z,84.64
2019-01-13T02:45:40.692Z,84.66
2019-01-13T02:48:11.572Z,84.49
2019-01-13T02:50:42.383Z,84.49
2019-01-13T02:53:13.182Z,84.41
2019-01-13T02:55:44.053Z,84.35
2019-01-13T02:58:14.864Z,84.19
2019-01-13T03:00:45.847Z,84.16
2019-01-13T03:03:16.592Z,84.18
2019-01-13T03:05:47.482Z,84.13
2019-01-13T03:08:18.370Z,84.41
2019-01-13T03:10:49.094Z,84.53
2019-01-13T03:13:19.982Z,84.55
2019-01-13T03:15:50.764Z,84.42
2019-01-13T03:18:21.650Z,84.59
2019-01-13T03:20:53.850Z,84.43
2019-01-13T03:23:24.654Z,84.51
2019-01-13T03:25:55.703Z,84.45
2019-01-13T03:28:26.497Z,84.32
2019-01-13T03:31:10.678Z,84.54
2019-01-13T03:33:30.052Z,84.40
2019-01-13T03:36:01.082Z,84.48
2019-01-13T03:38:31.777Z,84.73
2019-01-13T03:41:02.682Z,84.73
2019-01-13T03:43:33.598Z,84.68
2019-01-13T03:46:04.974Z,84.67
2019-01-13T03:48:35.747Z,84.73
2019-01-13T03:51:06.560Z,84.72
2019-01-13T03:53:37.425Z,84.75
2019-01-13T03:56:08.214Z,84.72
2019-01-13T03:58:38.994Z,84.77
2019-01-13T04:01:09.815Z,84.72
2019-01-13T04:03:40.702Z,84.84
2019-01-13T04:06:11.823Z,84.91
2019-01-13T04:08:44.516Z,84.81
2019-01-13T04:11:15.276Z,84.83
2019-01-13T04:13:46.068Z,84.91
2019-01-13T04:16:16.951Z,84.96
2019-01-13T04:18:47.621Z,85.12
2019-01-13T04:21:18.410Z,84.92
2019-01-13T04:23:49.399Z,85.06
2019-01-13T04:26:20.319Z,85.01
2019-01-13T04:28:51.116Z,85.05
2019-01-13T04:31:26.568Z,85.07
2019-01-13T04:33:54.385Z,84.95
2019-01-13T04:36:25.084Z,84.99
2019-01-13T04:38:55.746Z,84.89
2019-01-13T04:41:27.660Z,85.01
2019-01-13T04:43:58.447Z,85.20
2019-01-13T04:46:29.513Z,85.08
2019-01-13T04:49:00.114Z,85.15
2019-01-13T04:51:31.858Z,84.97
2019-01-13T04:54:02.720Z,85.12
2019-01-13T04:56:33.613Z,84.97
2019-01-13T04:59:04.418Z,84.90
2019-01-13T05:01:36.894Z,85.13
2019-01-13T05:04:07.725Z,85.03
2019-01-13T05:06:38.413Z,85.03
2019-01-13T05:09:09.978Z,85.01
2019-01-13T05:11:40.797Z,85.19
2019-01-13T05:14:11.589Z,85.09
2019-01-13T05:16:42.383Z,85.11
2019-01-13T05:19:13.049Z,85.16
2019-01-13T05:21:43.839Z,85.22
2019-01-13T05:24:14.578Z,85.26
2019-01-13T05:26:45.666Z,85.19
2019-01-13T05:29:16.378Z,85.21
2019-01-13T05:31:47.187Z,85.27
2019-01-13T05:34:17.969Z,85.01
2019-01-13T05:36:48.941Z,85.29
2019-01-13T05:39:19.742Z,85.44
2019-01-13T05:41:50.524Z,85.56
2019-01-13T05:44:21.177Z,85.58
2019-01-13T05:46:51.959Z,85.75
2019-01-13T05:49:22.753Z,85.50
2019-01-13T05:51:53.627Z,85.54
2019-01-13T05:54:24.522Z,85.78
2019-01-13T05:56:55.413Z,86.07
2019-01-13T05:59:26.232Z,86.21
2019-01-13T06:01:57.229Z,86.38
2019-01-13T06:04:28.104Z,86.15
2019-01-13T06:06:58.856Z,86.28
2019-01-13T06:09:29.759Z,86.58
2019-01-13T06:12:00.526Z,86.72
2019-01-13T06:14:31.311Z,86.65
2019-01-13T06:17:02.489Z,86.74
2019-01-13T06:19:33.226Z,86.81
2019-01-13T06:22:04.114Z,87.10
2019-01-13T06:24:34.864Z,86.96
2019-01-13T06:27:05.949Z,87.13
2019-01-13T06:29:36.679Z,87.22
2019-01-13T06:32:07.827Z,87.30
2019-01-13T06:34:38.693Z,87.31
2019-01-13T06:37:09.605Z,87.44
2019-01-13T06:39:40.493Z,87.47
2019-01-13T06:42:11.523Z,87.31
2019-01-13T06:44:42.619Z,87.42
2019-01-13T06:47:13.510Z,87.23
2019-01-13T06:49:44.262Z,87.23
2019-01-13T06:52:15.232Z,87.16
2019-01-13T06:54:45.917Z,87.24
2019-01-13T06:57:16.713Z,87.15
2019-01-13T06:59:47.490Z,86.75
2019-01-13T07:02:18.388Z,87.09
2019-01-13T07:04:49.305Z,86.98
2019-01-13T07:07:20.377Z,87.00
2019-01-13T07:09:51.154Z,86.88
2019-01-13T07:12:22.121Z,87.10
2019-01-13T07:14:52.718Z,86.99
2019-01-13T07:17:23.889Z,86.93
2019-01-13T07:19:54.625Z,87.05
2019-01-13T07:22:25.524Z,86.96
2019-01-13T07:24:56.262Z,87.14
2019-01-13T07:27:27.225Z,87.36
2019-01-13T07:29:58.137Z,87.38
2019-01-13T07:32:28.859Z,87.48
2019-01-13T07:34:59.751Z,87.57
2019-01-13T07:37:30.652Z,87.60
2019-01-13T07:40:01.521Z,87.61
2019-01-13T07:42:32.579Z,87.37
2019-01-13T07:45:03.378Z,87.29
2019-01-13T07:47:36.327Z,87.30
2019-01-13T07:50:08.556Z,87.28
2019-01-13T07:52:39.662Z,87.23
2019-01-13T07:55:12.555Z,87.27
2019-01-13T07:57:43.543Z,87.12
2019-01-13T08:00:17.332Z,86.89
2019-01-13T08:02:48.273Z,87.01
2019-01-13T08:05:19.271Z,86.90
2019-01-13T08:07:50.449Z,86.46
2019-01-13T08:10:21.463Z,86.42
2019-01-13T08:12:52.251Z,86.45
2019-01-13T08:15:23.166Z,86.44
2019-01-13T08:17:54.425Z,86.37
2019-01-13T08:20:27.953Z,86.34
2019-01-13T08:22:59.134Z,86.38
2019-01-13T08:25:30.162Z,86.19
2019-01-13T08:28:00.977Z,86.12
2019-01-13T08:30:31.866Z,86.07
2019-01-13T08:33:02.745Z,86.06
2019-01-13T08:35:33.502Z,86.03
2019-01-13T08:38:04.459Z,85.71
2019-01-13T08:40:35.278Z,85.64
2019-01-13T08:43:05.895Z,85.64
2019-01-13T08:45:36.579Z,85.71
2019-01-13T08:48:07.322Z,85.60
2019-01-13T08:50:38.155Z,85.69
2019-01-13T08:53:08.925Z,85.70
2019-01-13T08:55:39.826Z,85.64
2019-01-13T08:58:10.811Z,85.79
2019-01-13T09:00:41.458Z,85.43
2019-01-13T09:03:12.622Z,85.55
2019-01-13T09:05:43.574Z,85.24
2019-01-13T09:08:14.351Z,85.11
2019-01-13T09:10:45.213Z,84.87
2019-01-13T09:13:16.273Z,84.99
2019-01-13T09:15:47.082Z,85.03
2019-01-13T09:18:17.986Z,85.08
2019-01-13T09:20:48.805Z,85.13
2019-01-13T09:23:19.912Z,84.78
2019-01-13T09:25:50.568Z,85.07
2019-01-13T09:28:21.318Z,84.75
2019-01-13T09:30:52.040Z,84.82
2019-01-13T09:33:22.924Z,84.80
2019-01-13T09:35:53.874Z,85.11
2019-01-13T09:38:24.879Z,85.12
2019-01-13T09:40:55.793Z,85.03
2019-01-13T09:43:26.670Z,85.04
2019-01-13T09:45:57.539Z,85.28
2019-01-13T09:48:30.062Z,85.22
2019-01-13T09:51:00.949Z,85.50
2019-01-13T09:53:31.914Z,85.52
2019-01-13T09:56:02.806Z,85.96
2019-01-13T09:58:34.841Z,85.87
2019-01-13T10:01:06.136Z,85.88
2019-01-13T10:03:37.020Z,85.72
2019-01-13T10:06:07.846Z,85.73
2019-01-13T10:08:38.614Z,85.92
2019-01-13T10:11:09.516Z,86.24
2019-01-13T10:13:40.297Z,85.93
2019-01-13T10:16:11.009Z,86.13
2019-01-13T10:18:42.010Z,85.73
2019-01-13T10:21:12.722Z,85.88
2019-01-13T10:23:43.590Z,86.10
2019-01-13T10:26:14.396Z,86.23
2019-01-13T10:28:45.111Z,86.33
2019-01-13T10:31:16.001Z,86.65
2019-01-13T10:33:46.778Z,86.67
2019-01-13T10:36:17.676Z,86.66
2019-01-13T10:38:48.351Z,86.62
2019-01-13T10:41:19.038Z,86.56
2019-01-13T10:43:49.879Z,86.66
2019-01-13T10:46:20.687Z,86.54
2019-01-13T10:48:51.804Z,86.70
2019-01-13T10:51:22.591Z,86.77
2019-01-13T10:53:53.573Z,86.79
2019-01-13T10:56:24.330Z,86.80
2019-01-13T10:58:55.306Z,86.75
2019-01-13T11:01:26.212Z,86.75
2019-01-13T11:03:57.169Z,86.99
2019-01-13T11:06:27.929Z,87.02
2019-01-13T11:08:59.229Z,87.02
2019-01-13T11:11:30.067Z,87.06
2019-01-13T11:14:00.983Z,86.84
2019-01-13T11:16:31.770Z,86.84
2019-01-13T11:19:02.549Z,86.79
2019-01-13T11:21:33.445Z,86.76
2019-01-13T11:24:04.586Z,86.77
2019-01-13T11:26:35.322Z,86.84
2019-01-13T11:29:06.297Z,86.93
2019-01-13T11:31:37.300Z,86.72
2019-01-13T11:34:08.022Z,86.51
2019-01-13T11:36:38.828Z,86.60
2019-01-13T11:39:11.260Z,86.49
2019-01-13T11:41:42.138Z,86.39
2019-01-13T11:44:13.034Z,86.43
2019-01-13T11:46:43.854Z,86.46
2019-01-13T11:49:15.430Z,86.35
2019-01-13T11:51:46.311Z,86.51
2019-01-13T11:54:17.268Z,86.59
2019-01-13T11:56:47.918Z,86.87
2019-01-13T11:59:18.901Z,86.71
2019-01-13T12:01:49.794Z,86.89
2019-01-13T12:04:20.786Z,86.67
2019-01-13T12:06:51.686Z,86.67
2019-01-13T12:09:22.526Z,86.27
2019-01-13T12:11:53.217Z,86.15
2019-01-13T12:14:24.071Z,86.57
2019-01-13T12:16:54.985Z,86.17
2019-01-13T12:19:26.588Z,86.04
2019-01-13T12:21:57.367Z,86.09
2019-01-13T12:24:28.147Z,86.12
2019-01-13T12:26:58.974Z,86.21
2019-01-13T12:29:30.867Z,86.23
2019-01-13T12:32:01.748Z,86.26
2019-01-13T12:34:32.550Z,85.82
2019-01-13T12:37:03.515Z,85.40
2019-01-13T12:39:34.339Z,85.49
2019-01-13T12:42:05.134Z,85.18
2019-01-13T12:44:36.182Z,85.54
2019-01-13T12:47:06.901Z,84.92
2019-01-13T12:49:37.857Z,85.30
2019-01-13T12:52:08.746Z,85.24
2019-01-13T12:54:39.662Z,85.48
2019-01-13T12:57:10.316Z,85.28
2019-01-13T12:59:41.208Z,85.27
2019-01-13T13:02:12.118Z,85.28
2019-01-13T13:04:43.289Z,85.14
2019-01-13T13:07:14.073Z,85.26
2019-01-13T13:09:44.830Z,85.50
2019-01-13T13:12:15.636Z,85.02
2019-01-13T13:14:46.428Z,85.24
2019-01-13T13:17:17.487Z,85.11
2019-01-13T13:19:48.318Z,85.25
2019-01-13T13:22:19.079Z,84.99
2019-01-13T13:24:49.862Z,84.88
2019-01-13T13:27:21.711Z,84.95
2019-01-13T13:29:52.498Z,84.84
2019-01-13T13:32:23.342Z,84.51
2019-01-13T13:34:55.803Z,84.89
2019-01-13T13:37:26.794Z,84.74
2019-01-13T13:39:57.784Z,84.72
2019-01-13T13:42:28.540Z,84.68
2019-01-13T13:44:59.198Z,84.63
2019-01-13T13:47:30.114Z,84.39
2019-01-13T13:50:01.267Z,84.61
2019-01-13T13:52:32.021Z,84.70
2019-01-13T13:55:02.905Z,84.71
2019-01-13T13:57:33.483Z,84.83
2019-01-13T14:00:05.394Z,84.54
2019-01-13T14:02:37.276Z,84.42
2019-01-13T14:05:08.561Z,84.29
2019-01-13T14:07:39.285Z,84.37
2019-01-13T14:10:14.861Z,84.56
2019-01-13T14:12:45.742Z,84.36
2019-01-13T14:15:16.908Z,84.36
2019-01-13T14:17:47.750Z,84.35
2019-01-13T14:20:19.033Z,84.20
2019-01-13T14:22:49.894Z,84.02
2019-01-13T14:25:20.809Z,84.20
2019-01-13T14:27:51.815Z,84.17
2019-01-13T14:30:25.222Z,83.91
2019-01-13T14:32:56.222Z,83.73
2019-01-13T14:35:27.071Z,83.97
2019-01-13T14:37:57.922Z,83.79
2019-01-13T14:40:28.772Z,83.91
2019-01-13T14:42:59.664Z,84.16
2019-01-13T14:45:30.529Z,84.17
2019-01-13T14:48:01.028Z,83.84
2019-01-13T14:50:33.858Z,83.86
2019-01-13T14:53:05.983Z,84.18
2019-01-13T14:55:36.794Z,84.06
2019-01-13T14:58:08.158Z,84.23
2019-01-13T15:00:39.454Z,84.09
2019-01-13T15:03:10.377Z,83.86
2019-01-13T15:05:41.242Z,83.94
2019-01-13T15:08:12.229Z,83.71
2019-01-13T15:10:43.089Z,84.09
2019-01-13T15:13:14.047Z,84.23
2019-01-13T15:15:45.201Z,84.12
2019-01-13T15:18:16.009Z,84.10
2019-01-13T15:20:46.866Z,84.06
2019-01-13T15:23:17.649Z,84.21
2019-01-13T15:25:48.519Z,84.20
2019-01-13T15:28:19.217Z,84.08
2019-01-13T15:30:50.289Z,83.91
2019-01-13T15:33:20.805Z,84.10
2019-01-13T15:35:51.363Z,84.08
2019-01-13T15:38:21.841Z,84.01
2019-01-13T15:40:52.631Z,84.28
2019-01-13T15:43:23.518Z,84.24
2019-01-13T15:45:54.076Z,84.46
2019-01-13T15:48:24.553Z,84.59
2019-01-13T15:50:55.849Z,84.90
2019-01-13T15:53:26.385Z,85.08
2019-01-13T15:55:57.274Z,85.19
2019-01-13T15:58:27.962Z,85.35
2019-01-13T16:00:58.937Z,85.53
2019-01-13T16:03:29.409Z,85.54
2019-01-13T16:06:00.066Z,86.00
2019-01-13T16:08:30.547Z,86.18
2019-01-13T16:11:01.070Z,86.38
2019-01-13T16:13:31.650Z,86.49
2019-01-13T16:16:02.509Z,86.45
2019-01-13T16:18:32.983Z,86.43
2019-01-13T16:21:03.752Z,86.38
2019-01-13T16:23:34.595Z,86.12
2019-01-13T16:26:05.630Z,86.08
2019-01-13T16:28:36.422Z,86.08
2019-01-13T16:31:07.207Z,86.12
2019-01-13T16:33:39.124Z,86.19
2019-01-13T16:36:10.166Z,86.22
2019-01-13T16:38:40.928Z,86.04
2019-01-13T16:41:11.466Z,85.93
2019-01-13T16:43:41.962Z,86.07
2019-01-13T16:46:12.773Z,86.13
2019-01-13T16:48:43.658Z,86.09
2019-01-13T16:51:14.554Z,86.10
2019-01-13T16:53:45.394Z,86.43
2019-01-13T16:56:16.473Z,86.38
2019-01-13T16:58:47.206Z,86.36
2019-01-13T17:01:17.996Z,86.28
2019-01-13T17:03:48.680Z,86.28
2019-01-13T17:06:19.674Z,86.09
2019-01-13T17:08:50.549Z,86.37
2019-01-13T17:11:21.653Z,86.39
2019-01-13T17:13:52.217Z,86.15
2019-01-13T17:16:23.383Z,86.30
2019-01-13T17:18:54.312Z,86.11
2019-01-13T17:21:25.106Z,86.15
2019-01-13T17:23:55.880Z,86.25
2019-01-13T17:26:27.047Z,86.15
2019-01-13T17:28:58.026Z,85.92
2019-01-13T17:31:29.120Z,85.89
2019-01-13T17:34:01.068Z,85.79
2019-01-13T17:36:31.750Z,85.64
2019-01-13T17:39:02.431Z,85.64
2019-01-13T17:41:33.692Z,85.71
2019-01-13T17:44:04.477Z,85.36
2019-01-13T17:46:35.171Z,85.66
2019-01-13T17:49:05.775Z,85.48
2019-01-13T17:51:36.318Z,85.66
2019-01-13T17:54:07.042Z,85.79
2019-01-13T17:56:37.828Z,86.09
2019-01-13T17:59:08.379Z,86.35
2019-01-13T18:01:46.190Z,86.05
2019-01-13T18:04:16.757Z,86.38
2019-01-13T18:06:47.400Z,86.56
2019-01-13T18:09:17.883Z,86.80
2019-01-13T18:11:48.511Z,86.74
2019-01-13T18:14:19.991Z,86.60
2019-01-13T18:16:50.515Z,86.58
2019-01-13T18:19:20.995Z,86.64
2019-01-13T18:21:51.564Z,86.82
2019-01-13T18:24:22.105Z,86.74
2019-01-13T18:26:52.943Z,86.93
2019-01-13T18:29:23.421Z,86.95
2019-01-13T18:31:53.962Z,86.93
2019-01-13T18:34:24.441Z,86.85
2019-01-13T18:36:54.981Z,87.03
2019-01-13T18:39:25.457Z,87.04
2019-01-13T18:41:55.995Z,87.00
2019-01-13T18:44:26.481Z,87.10
2019-01-13T18:46:57.468Z,87.11
2019-01-13T18:49:28.306Z,87.06
2019-01-13T18:51:59.154Z,86.95
2019-01-13T18:54:29.879Z,86.96
2019-01-13T18:57:00.666Z,86.80
2019-01-13T18:59:31.343Z,86.68
2019-01-13T19:02:02.134Z,86.91
2019-01-13T19:04:32.914Z,87.09
2019-01-13T19:07:03.597Z,87.18
2019-01-13T19:09:34.445Z,87.08
2019-01-13T19:12:05.343Z,86.85
2019-01-13T19:14:48.849Z,86.76
2019-01-13T19:17:21.759Z,86.71
2019-01-13T19:19:57.358Z,86.87
2019-01-13T19:22:30.109Z,86.88
2019-01-13T19:25:03.222Z,86.92
2019-01-13T19:27:35.166Z,86.91
2019-01-13T19:30:07.559Z,87.21
2019-01-13T19:32:38.941Z,87.45
2019-01-13T19:35:11.111Z,87.29
2019-01-13T19:37:41.617Z,87.20
2019-01-13T19:40:14.041Z,87.12
2019-01-13T19:42:45.091Z,87.28
2019-01-13T19:45:17.593Z,87.21
2019-01-13T19:47:48.389Z,87.46
2019-01-13T19:50:21.627Z,87.60
2019-01-13T19:52:54.173Z,87.48
2019-01-13T19:55:24.654Z,87.65
2019-01-13T19:57:55.177Z,87.69
2019-01-13T20:00:28.659Z,87.60
2019-01-13T20:02:59.166Z,87.69
2019-01-13T20:05:29.639Z,87.61
2019-01-13T20:08:00.860Z,87.48
2019-01-13T20:10:31.350Z,87.37
2019-01-13T20:13:01.882Z,87.42
2019-01-13T20:15:32.370Z,87.51
2019-01-13T20:18:03.322Z,87.24
2019-01-13T20:20:33.908Z,87.42
2019-01-13T20:23:05.301Z,87.18
2019-01-13T20:25:35.776Z,87.39
2019-01-13T20:28:06.425Z,87.49
2019-01-13T20:30:36.903Z,87.30
2019-01-13T20:33:08.046Z,87.43
2019-01-13T20:35:38.512Z,87.37
2019-01-13T20:38:09.733Z,87.38
2019-01-13T20:40:40.742Z,86.92
2019-01-13T20:43:12.919Z,87.16
2019-01-13T20:45:44.010Z,86.85
2019-01-13T20:48:14.931Z,86.70
2019-01-13T20:50:45.614Z,86.55
2019-01-13T20:53:18.502Z,86.64
2019-01-13T20:55:49.302Z,86.42
2019-01-13T20:58:20.185Z,86.76
2019-01-13T21:00:51.011Z,86.51
2019-01-13T21:03:21.995Z,86.45
2019-01-13T21:05:52.854Z,86.24
2019-01-13T21:08:25.166Z,86.33
2019-01-13T21:10:56.981Z,86.44
2019-01-13T21:13:27.844Z,86.21
2019-01-13T21:15:58.554Z,86.57
2019-01-13T21:18:29.439Z,86.26
2019-01-13T21:21:00.055Z,86.25
2019-01-13T21:23:30.822Z,85.84
2019-01-13T21:26:01.625Z,85.71
2019-01-13T21:28:32.501Z,85.44
2019-01-13T21:31:03.161Z,85.34
2019-01-13T21:33:34.326Z,84.91
2019-01-13T21:36:05.489Z,84.48
2019-01-13T21:38:36.339Z,84.54
2019-01-13T21:41:07.122Z,84.34
2019-01-13T21:43:37.973Z,84.46
2019-01-13T21:46:08.862Z,84.10
2019-01-13T21:48:39.605Z,84.04
2019-01-13T21:51:10.498Z,84.26
2019-01-13T21:53:41.459Z,84.26
2019-01-13T21:56:12.274Z,84.04
2019-01-13T21:58:42.912Z,83.95
2019-01-13T22:01:13.707Z,83.97
2019-01-13T22:03:44.715Z,83.82
2019-01-13T22:06:16.611Z,83.75
2019-01-13T22:08:47.385Z,83.85
2019-01-13T22:11:18.518Z,83.97
2019-01-13T22:13:49.211Z,84.29
2019-01-13T22:16:19.983Z,84.13
2019-01-13T22:18:50.951Z,84.38
2019-01-13T22:21:21.735Z,85.01
2019-01-13T22:23:52.485Z,85.26
2019-01-13T22:26:23.370Z,85.54
2019-01-13T22:28:54.496Z,85.49
2019-01-13T22:31:25.319Z,85.48
2019-01-13T22:33:56.254Z,85.59
2019-01-13T22:36:27.048Z,85.23
2019-01-13T22:38:57.938Z,85.32
2019-01-13T22:41:28.769Z,85.48
2019-01-13T22:43:59.536Z,85.54
2019-01-13T22:46:30.338Z,85.36
2019-01-13T22:49:01.282Z,85.79
2019-01-13T22:51:32.102Z,86.19
2019-01-13T22:54:03.046Z,85.98
2019-01-13T22:56:33.843Z,86.20
2019-01-13T22:59:04.986Z,86.27
2019-01-13T23:01:48.308Z,86.54
2019-01-13T23:04:20.005Z,86.63
2019-01-13T23:06:50.842Z,86.53
2019-01-13T23:09:21.616Z,86.57
2019-01-13T23:11:52.591Z,86.72
2019-01-13T23:14:23.278Z,86.84
2019-01-13T23:16:54.300Z,86.84
2019-01-13T23:19:25.274Z,86.58
2019-01-13T23:21:56.071Z,85.93
2019-01-13T23:24:26.719Z,86.24
2019-01-13T23:26:57.602Z,86.15
2019-01-13T23:29:28.525Z,85.94
2019-01-13T23:31:59.441Z,86.12
2019-01-13T23:34:30.186Z,86.05
2019-01-13T23:37:01.049Z,85.63
2019-01-13T23:39:31.861Z,85.66
2019-01-13T23:42:02.722Z,85.89
2019-01-13T23:44:33.502Z,86.23
2019-01-13T23:47:04.465Z,86.23
2019-01-13T23:49:35.986Z,86.70
2019-01-13T23:52:06.883Z,86.68
2019-01-13T23:54:37.576Z,86.81
2019-01-13T23:57:08.285Z,86.25
2019-01-13T23:59:39.046Z,86.28
